Terminal Aerodrome Forecast
Issued by NWS Boise, ID

Home | Current Version | Previous Version | Text Only | Print | Product List | Glossary On
Versions: 1 2 3 4 5 6 7 8 9 10 11 12
000
FTUS45 KBOI 262320
TAFBNO
TAF
KBNO 262320Z 2700/2724 23004KT P6SM BKN035
     FM270300 VRB03KT 5SM -SN OVC030
     FM270700 VRB06KT P6SM OVC030=

USA.gov is the U.S. government's official web portal to all federal, state and local government web resources and services.